Strona główna
METAR-TAF:

METAR-TAF

Lotnisko :

Angola, Indiana, Stany Zjednoczone

Szerokość geograficzna: 41-38-23N, Długość geograficzna: 085-05-01W, wysokość: 303 m

Aktualna obserwacja pogody

Raport powstał 24 minut temu, godzina 10:55 UTC
Wiatr 5 kt z kierunków zmiennych
Temperatura 22°C
Wilgotność 94%
Ciśnienie 1014 hPa
Widzialność: 9.7 km
Zachmurzenie całkowite na wysokości 700 ft
zamglenie

METAR: KANQ 211055Z AUTO VRB05KT 6SM BR OVC007 22/21 A2994 RMK AO2 LTG DSNT N

czas: 07:19 (11:19 UTC)


TAF: brakujący

Obserwacja i prognoza pogody dla ponad 4000 lotnisk (raport METAR i TAF).

Dostępne stacje oznaczono żółtymi i czerwonymi punktami na mapie.

Najedź kursorem aby zobaczyć nazwę stacji.

Kliknij aby zobaczyć obserwacje i prognozy pogody.

Aby zmienić mapę: kliknij na zielony przycisk z czarnym krzyżykiem, aby powiększyć; na zielony przycisk z myślnikiem, aby pomniejszyć; na zielone strzałki, aby przejść do map sąsiednich.


METAR-TAF: